ETSA

Landsberg Lech Airport

Germany
METAR ETSA 221720Z AUTO 24006KT 9999 // ////// 24/03 Q1015 ///
Observed Flight Rules
Apr-22 @ 17:20 UTC (an hour ago)
Wind Visibility
240° at 6 knots 10,000+ meters
Temperatures Readings
Current 24°C / 75°F
Dewpoint 3°C / 37°F
Humidity 25%
Altimeter 29.97" Hg
Pressure 1015 hPa
Elevation 628
METAR ETSA 221720Z AUTO 24006KT 9999 // ////// 24/03 Q1015 ///
Observed Flight Rules
Apr-22 @ 17:20 UTC
(an hour ago)
Wind Visibility
240° at 6 knots 10,000+ meters
Temperature Dewpoint
24°C / 75°F 3°C / 37°F
Humidity Altimeter Pressure
25% 29.97" Hg 1015 hPa